sensor_id;sensor_type;location;lat;lon;timestamp;pressure;altitude;pressure_sealevel;temperature;humidity
10539;BME280;5317;49.048;8.468;2022-11-23T00:00:41;112049.66;;;-142.21;95.50
10539;BME280;5317;49.048;8.468;2022-11-23T00:03:13;112049.66;;;-142.21;95.51
10539;BME280;5317;49.048;8.468;2022-11-23T00:05:41;112049.66;;;-142.21;95.45
10539;BME280;5317;49.048;8.468;2022-11-23T00:08:09;112049.66;;;-142.21;95.45
10539;BME280;5317;49.048;8.468;2022-11-23T00:10:36;112049.66;;;-142.21;95.50
10539;BME280;5317;49.048;8.468;2022-11-23T00:13:03;112049.66;;;-142.21;95.25
10539;BME280;5317;49.048;8.468;2022-11-23T00:15:30;112049.66;;;-142.21;95.02
10539;BME280;5317;49.048;8.468;2022-11-23T00:17:58;112049.66;;;-142.21;94.82
10539;BME280;5317;49.048;8.468;2022-11-23T00:20:25;112049.66;;;-142.21;95.06
10539;BME280;5317;49.048;8.468;2022-11-23T00:22:52;112049.66;;;-142.21;95.21
10539;BME280;5317;49.048;8.468;2022-11-23T00:25:21;112049.66;;;-142.21;95.14
10539;BME280;5317;49.048;8.468;2022-11-23T00:27:48;112049.66;;;-142.21;95.20
10539;BME280;5317;49.048;8.468;2022-11-23T00:30:15;112049.66;;;-142.21;94.99
10539;BME280;5317;49.048;8.468;2022-11-23T00:32:43;112049.66;;;-142.21;94.74
10539;BME280;5317;49.048;8.468;2022-11-23T00:35:10;112049.66;;;-142.21;94.83
10539;BME280;5317;49.048;8.468;2022-11-23T00:37:37;112049.66;;;-142.21;94.06
10539;BME280;5317;49.048;8.468;2022-11-23T00:40:06;112049.66;;;-142.21;94.34
10539;BME280;5317;49.048;8.468;2022-11-23T00:42:34;112049.66;;;-142.21;94.14
10539;BME280;5317;49.048;8.468;2022-11-23T00:45:01;112049.66;;;-142.21;94.04
10539;BME280;5317;49.048;8.468;2022-11-23T00:47:28;112049.66;;;-142.21;93.96
10539;BME280;5317;49.048;8.468;2022-11-23T00:49:56;112049.66;;;-142.21;93.98
10539;BME280;5317;49.048;8.468;2022-11-23T00:52:23;112049.66;;;-142.21;93.73
10539;BME280;5317;49.048;8.468;2022-11-23T00:54:50;112049.66;;;-142.21;93.74
10539;BME280;5317;49.048;8.468;2022-11-23T00:57:17;112049.66;;;-142.21;93.91
10539;BME280;5317;49.048;8.468;2022-11-23T00:59:45;112049.66;;;-142.21;93.86
10539;BME280;5317;49.048;8.468;2022-11-23T01:02:12;112049.66;;;-142.21;94.04
10539;BME280;5317;49.048;8.468;2022-11-23T01:04:40;112049.66;;;-142.21;93.67
10539;BME280;5317;49.048;8.468;2022-11-23T01:07:07;112049.66;;;-142.21;94.04
10539;BME280;5317;49.048;8.468;2022-11-23T01:09:34;112049.66;;;-142.21;94.13
10539;BME280;5317;49.048;8.468;2022-11-23T01:12:01;112049.66;;;-142.21;93.96
10539;BME280;5317;49.048;8.468;2022-11-23T01:14:28;112049.66;;;-142.21;94.30
10539;BME280;5317;49.048;8.468;2022-11-23T01:16:56;112049.66;;;-142.21;94.30
10539;BME280;5317;49.048;8.468;2022-11-23T01:19:24;112049.66;;;-142.21;94.12
10539;BME280;5317;49.048;8.468;2022-11-23T01:21:51;112049.66;;;-142.21;94.26
10539;BME280;5317;49.048;8.468;2022-11-23T01:24:20;112049.66;;;-142.21;94.83
10539;BME280;5317;49.048;8.468;2022-11-23T01:26:50;112049.66;;;-142.21;95.42
10539;BME280;5317;49.048;8.468;2022-11-23T01:29:18;112049.66;;;-142.21;95.55
10539;BME280;5317;49.048;8.468;2022-11-23T01:31:45;112049.66;;;-142.21;96.07
10539;BME280;5317;49.048;8.468;2022-11-23T01:34:15;112049.66;;;-142.21;96.72
10539;BME280;5317;49.048;8.468;2022-11-23T01:36:42;112049.66;;;-142.21;97.10
10539;BME280;5317;49.048;8.468;2022-11-23T01:39:11;112049.66;;;-142.21;97.52
10539;BME280;5317;49.048;8.468;2022-11-23T01:41:40;112049.66;;;-142.21;97.88
10539;BME280;5317;49.048;8.468;2022-11-23T01:44:29;112049.66;;;-142.21;98.12
10539;BME280;5317;49.048;8.468;2022-11-23T01:46:58;112049.66;;;-142.21;97.93
10539;BME280;5317;49.048;8.468;2022-11-23T01:49:32;112049.66;;;-142.21;98.02
10539;BME280;5317;49.048;8.468;2022-11-23T01:52:06;112049.66;;;-142.21;98.48
10539;BME280;5317;49.048;8.468;2022-11-23T01:54:39;112049.66;;;-142.21;98.93
10539;BME280;5317;49.048;8.468;2022-11-23T01:57:16;112049.66;;;-142.21;99.06
10539;BME280;5317;49.048;8.468;2022-11-23T01:59:46;112049.66;;;-142.21;99.03
10539;BME280;5317;49.048;8.468;2022-11-23T02:02:18;112049.66;;;-142.21;99.08
10539;BME280;5317;49.048;8.468;2022-11-23T02:04:48;112049.66;;;-142.21;98.77
10539;BME280;5317;49.048;8.468;2022-11-23T02:07:19;112049.66;;;-142.21;99.17
10539;BME280;5317;49.048;8.468;2022-11-23T02:09:49;112049.66;;;-142.21;99.25
10539;BME280;5317;49.048;8.468;2022-11-23T02:12:16;112049.66;;;-142.21;97.83
10539;BME280;5317;49.048;8.468;2022-11-23T02:14:45;112049.66;;;-142.21;98.26
10539;BME280;5317;49.048;8.468;2022-11-23T02:17:12;112049.66;;;-142.21;97.73
10539;BME280;5317;49.048;8.468;2022-11-23T02:19:49;112049.66;;;-142.21;97.94
10539;BME280;5317;49.048;8.468;2022-11-23T02:22:27;112049.66;;;-142.21;98.25
10539;BME280;5317;49.048;8.468;2022-11-23T02:24:55;112049.66;;;-142.21;98.59
10539;BME280;5317;49.048;8.468;2022-11-23T02:27:25;112049.66;;;-142.21;99.06
10539;BME280;5317;49.048;8.468;2022-11-23T02:29:54;112049.66;;;-142.21;99.37
10539;BME280;5317;49.048;8.468;2022-11-23T02:32:23;112049.66;;;-142.21;99.47
10539;BME280;5317;49.048;8.468;2022-11-23T02:34:51;112049.66;;;-142.21;99.24
10539;BME280;5317;49.048;8.468;2022-11-23T02:37:18;112049.66;;;-142.21;98.40
10539;BME280;5317;49.048;8.468;2022-11-23T02:39:48;112049.66;;;-142.21;98.27
10539;BME280;5317;49.048;8.468;2022-11-23T02:42:17;112049.66;;;-142.21;98.01
10539;BME280;5317;49.048;8.468;2022-11-23T02:44:52;112049.66;;;-142.21;97.87
10539;BME280;5317;49.048;8.468;2022-11-23T02:47:22;112049.66;;;-142.21;97.46
10539;BME280;5317;49.048;8.468;2022-11-23T02:49:49;112049.66;;;-142.21;98.03
10539;BME280;5317;49.048;8.468;2022-11-23T02:52:18;112049.66;;;-142.21;97.79
10539;BME280;5317;49.048;8.468;2022-11-23T02:54:45;112049.66;;;-142.21;98.09
10539;BME280;5317;49.048;8.468;2022-11-23T02:57:12;112049.66;;;-142.21;97.57
10539;BME280;5317;49.048;8.468;2022-11-23T02:59:39;112049.66;;;-142.21;97.79
10539;BME280;5317;49.048;8.468;2022-11-23T03:02:08;112049.66;;;-142.21;98.25
10539;BME280;5317;49.048;8.468;2022-11-23T03:04:35;112049.66;;;-142.21;98.38
10539;BME280;5317;49.048;8.468;2022-11-23T03:07:02;112049.66;;;-142.21;98.98
10539;BME280;5317;49.048;8.468;2022-11-23T03:09:29;112049.66;;;-142.21;99.54
10539;BME280;5317;49.048;8.468;2022-11-23T03:11:57;112049.66;;;-142.21;99.04
10539;BME280;5317;49.048;8.468;2022-11-23T03:14:24;112049.66;;;-142.21;98.39
10539;BME280;5317;49.048;8.468;2022-11-23T03:16:51;112049.66;;;-142.21;98.60
10539;BME280;5317;49.048;8.468;2022-11-23T03:19:20;112049.66;;;-142.21;97.98
10539;BME280;5317;49.048;8.468;2022-11-23T03:21:47;112049.66;;;-142.21;97.62
10539;BME280;5317;49.048;8.468;2022-11-23T03:24:14;112049.66;;;-142.21;97.27
10539;BME280;5317;49.048;8.468;2022-11-23T03:26:42;112049.66;;;-142.21;97.50
10539;BME280;5317;49.048;8.468;2022-11-23T03:29:09;112049.66;;;-142.21;97.34
10539;BME280;5317;49.048;8.468;2022-11-23T03:31:40;112049.66;;;-142.21;97.54
10539;BME280;5317;49.048;8.468;2022-11-23T03:34:08;112049.66;;;-142.21;97.49
10539;BME280;5317;49.048;8.468;2022-11-23T03:36:36;112049.66;;;-142.21;97.56
10539;BME280;5317;49.048;8.468;2022-11-23T03:39:04;112049.66;;;-142.21;97.82
10539;BME280;5317;49.048;8.468;2022-11-23T03:41:31;112049.66;;;-142.21;98.29
10539;BME280;5317;49.048;8.468;2022-11-23T03:43:58;112049.66;;;-142.21;99.26
10539;BME280;5317;49.048;8.468;2022-11-23T03:46:25;112049.66;;;-142.21;98.95
10539;BME280;5317;49.048;8.468;2022-11-23T03:48:52;112049.66;;;-142.21;98.98
10539;BME280;5317;49.048;8.468;2022-11-23T03:51:19;112049.66;;;-142.21;98.80
10539;BME280;5317;49.048;8.468;2022-11-23T03:53:47;112049.66;;;-142.21;99.06
10539;BME280;5317;49.048;8.468;2022-11-23T03:56:14;112049.66;;;-142.21;99.23
10539;BME280;5317;49.048;8.468;2022-11-23T03:58:42;112049.66;;;-142.21;99.46
10539;BME280;5317;49.048;8.468;2022-11-23T04:01:09;112049.66;;;-142.21;99.65
10539;BME280;5317;49.048;8.468;2022-11-23T04:03:36;112049.66;;;-142.21;100.00
10539;BME280;5317;49.048;8.468;2022-11-23T04:06:03;112049.66;;;-142.21;100.00
10539;BME280;5317;49.048;8.468;2022-11-23T04:08:31;112049.66;;;-142.21;100.00
10539;BME280;5317;49.048;8.468;2022-11-23T04:10:59;112049.66;;;-142.21;100.00
10539;BME280;5317;49.048;8.468;2022-11-23T04:13:26;112049.66;;;-142.21;100.00
10539;BME280;5317;49.048;8.468;2022-11-23T04:15:53;112049.66;;;-142.21;100.00
10539;BME280;5317;49.048;8.468;2022-11-23T04:18:20;112049.66;;;-142.21;100.00
10539;BME280;5317;49.048;8.468;2022-11-23T04:20:48;112049.66;;;-142.21;100.00
10539;BME280;5317;49.048;8.468;2022-11-23T04:23:15;112049.66;;;-142.21;100.00
10539;BME280;5317;49.048;8.468;2022-11-23T04:25:42;112049.66;;;-142.21;100.00
10539;BME280;5317;49.048;8.468;2022-11-23T04:28:10;112049.66;;;-142.21;100.00
10539;BME280;5317;49.048;8.468;2022-11-23T04:30:38;112049.66;;;-142.21;100.00
10539;BME280;5317;49.048;8.468;2022-11-23T04:33:05;112049.66;;;-142.21;100.00
10539;BME280;5317;49.048;8.468;2022-11-23T04:35:32;112049.66;;;-142.21;100.00
10539;BME280;5317;49.048;8.468;2022-11-23T04:37:59;112049.66;;;-142.21;100.00
10539;BME280;5317;49.048;8.468;2022-11-23T04:40:27;112049.66;;;-142.21;99.75
10539;BME280;5317;49.048;8.468;2022-11-23T04:42:56;112049.66;;;-142.21;99.17
10539;BME280;5317;49.048;8.468;2022-11-23T04:45:25;112049.66;;;-142.21;98.35
10539;BME280;5317;49.048;8.468;2022-11-23T04:47:52;112049.66;;;-142.21;98.83
10539;BME280;5317;49.048;8.468;2022-11-23T04:50:19;112049.66;;;-142.21;99.27
10539;BME280;5317;49.048;8.468;2022-11-23T04:52:46;112049.66;;;-142.21;99.68
10539;BME280;5317;49.048;8.468;2022-11-23T04:55:13;112049.66;;;-142.21;99.18
10539;BME280;5317;49.048;8.468;2022-11-23T04:57:40;112049.66;;;-142.21;99.52
10539;BME280;5317;49.048;8.468;2022-11-23T05:00:09;112049.66;;;-142.21;98.88
10539;BME280;5317;49.048;8.468;2022-11-23T05:02:38;112049.66;;;-142.21;99.92
10539;BME280;5317;49.048;8.468;2022-11-23T05:05:05;112049.66;;;-142.21;100.00
10539;BME280;5317;49.048;8.468;2022-11-23T05:07:33;112049.66;;;-142.21;100.00
10539;BME280;5317;49.048;8.468;2022-11-23T05:10:00;112049.66;;;-142.21;100.00
10539;BME280;5317;49.048;8.468;2022-11-23T05:12:27;112049.66;;;-142.21;100.00
10539;BME280;5317;49.048;8.468;2022-11-23T05:14:54;112049.66;;;-142.21;100.00
10539;BME280;5317;49.048;8.468;2022-11-23T05:17:22;112049.66;;;-142.21;100.00
10539;BME280;5317;49.048;8.468;2022-11-23T05:19:50;112049.66;;;-142.21;100.00
10539;BME280;5317;49.048;8.468;2022-11-23T05:22:17;112049.66;;;-142.21;100.00
10539;BME280;5317;49.048;8.468;2022-11-23T05:24:44;112049.66;;;-142.21;100.00
10539;BME280;5317;49.048;8.468;2022-11-23T05:27:13;112049.66;;;-142.21;100.00
10539;BME280;5317;49.048;8.468;2022-11-23T05:29:40;112049.66;;;-142.21;100.00
10539;BME280;5317;49.048;8.468;2022-11-23T05:32:07;112049.66;;;-142.21;100.00
10539;BME280;5317;49.048;8.468;2022-11-23T05:34:34;112049.66;;;-142.21;100.00
10539;BME280;5317;49.048;8.468;2022-11-23T05:37:03;112049.66;;;-142.21;100.00
10539;BME280;5317;49.048;8.468;2022-11-23T05:39:30;112049.66;;;-142.21;100.00
10539;BME280;5317;49.048;8.468;2022-11-23T05:41:57;112049.66;;;-142.21;100.00
10539;BME280;5317;49.048;8.468;2022-11-23T05:44:24;112049.66;;;-142.21;100.00
10539;BME280;5317;49.048;8.468;2022-11-23T05:46:51;112049.66;;;-142.21;100.00
10539;BME280;5317;49.048;8.468;2022-11-23T05:49:18;112049.66;;;-142.21;100.00
10539;BME280;5317;49.048;8.468;2022-11-23T05:51:46;112049.66;;;-142.21;100.00
10539;BME280;5317;49.048;8.468;2022-11-23T05:54:14;112049.66;;;-142.21;100.00
10539;BME280;5317;49.048;8.468;2022-11-23T05:56:41;112049.66;;;-142.21;100.00
10539;BME280;5317;49.048;8.468;2022-11-23T05:59:10;112049.66;;;-142.21;100.00
10539;BME280;5317;49.048;8.468;2022-11-23T06:01:37;112049.66;;;-142.21;100.00
10539;BME280;5317;49.048;8.468;2022-11-23T06:04:04;112049.66;;;-142.21;100.00
10539;BME280;5317;49.048;8.468;2022-11-23T06:06:32;112049.66;;;-142.21;100.00
10539;BME280;5317;49.048;8.468;2022-11-23T06:08:59;112049.66;;;-142.21;100.00
10539;BME280;5317;49.048;8.468;2022-11-23T06:11:28;112049.66;;;-142.21;100.00
10539;BME280;5317;49.048;8.468;2022-11-23T06:13:56;112049.66;;;-142.21;100.00
10539;BME280;5317;49.048;8.468;2022-11-23T06:16:23;112049.66;;;-142.21;100.00
10539;BME280;5317;49.048;8.468;2022-11-23T06:18:50;112049.66;;;-142.21;100.00
10539;BME280;5317;49.048;8.468;2022-11-23T06:21:17;112049.66;;;-142.21;100.00
10539;BME280;5317;49.048;8.468;2022-11-23T06:23:46;112049.66;;;-142.21;100.00
10539;BME280;5317;49.048;8.468;2022-11-23T06:26:14;112049.66;;;-142.21;100.00
10539;BME280;5317;49.048;8.468;2022-11-23T06:28:43;112049.66;;;-142.21;100.00
10539;BME280;5317;49.048;8.468;2022-11-23T06:31:10;112049.66;;;-142.21;100.00
10539;BME280;5317;49.048;8.468;2022-11-23T06:33:37;112049.66;;;-142.21;100.00
10539;BME280;5317;49.048;8.468;2022-11-23T06:36:06;112049.66;;;-142.21;100.00
10539;BME280;5317;49.048;8.468;2022-11-23T06:38:35;112049.66;;;-142.21;100.00
10539;BME280;5317;49.048;8.468;2022-11-23T06:41:02;112049.66;;;-142.21;100.00
10539;BME280;5317;49.048;8.468;2022-11-23T06:43:31;112049.66;;;-142.21;100.00
10539;BME280;5317;49.048;8.468;2022-11-23T06:46:03;112049.66;;;-142.21;100.00
10539;BME280;5317;49.048;8.468;2022-11-23T06:48:31;112049.66;;;-142.21;100.00
10539;BME280;5317;49.048;8.468;2022-11-23T06:51:03;112049.66;;;-142.21;100.00
10539;BME280;5317;49.048;8.468;2022-11-23T06:53:31;112049.66;;;-142.21;100.00
10539;BME280;5317;49.048;8.468;2022-11-23T06:56:00;112049.66;;;-142.21;100.00
10539;BME280;5317;49.048;8.468;2022-11-23T06:58:28;112049.66;;;-142.21;100.00
10539;BME280;5317;49.048;8.468;2022-11-23T07:01:00;112049.66;;;-142.21;100.00
10539;BME280;5317;49.048;8.468;2022-11-23T07:03:28;112049.66;;;-142.21;100.00
10539;BME280;5317;49.048;8.468;2022-11-23T07:05:56;112049.66;;;-142.21;100.00
10539;BME280;5317;49.048;8.468;2022-11-23T07:08:23;112049.66;;;-142.21;100.00
10539;BME280;5317;49.048;8.468;2022-11-23T07:11:00;112049.66;;;-142.21;100.00
10539;BME280;5317;49.048;8.468;2022-11-23T07:13:28;112049.66;;;-142.21;100.00
10539;BME280;5317;49.048;8.468;2022-11-23T07:15:57;112049.66;;;-142.21;100.00
10539;BME280;5317;49.048;8.468;2022-11-23T07:18:26;112049.66;;;-142.21;100.00
10539;BME280;5317;49.048;8.468;2022-11-23T07:20:56;112049.66;;;-142.21;100.00
10539;BME280;5317;49.048;8.468;2022-11-23T07:23:23;112049.66;;;-142.21;100.00
10539;BME280;5317;49.048;8.468;2022-11-23T07:25:50;112049.66;;;-142.21;100.00
10539;BME280;5317;49.048;8.468;2022-11-23T07:28:18;112049.66;;;-142.21;100.00
10539;BME280;5317;49.048;8.468;2022-11-23T07:30:45;112049.66;;;-142.21;100.00
10539;BME280;5317;49.048;8.468;2022-11-23T07:33:12;112049.66;;;-142.21;100.00
10539;BME280;5317;49.048;8.468;2022-11-23T07:35:41;112049.66;;;-142.21;100.00
10539;BME280;5317;49.048;8.468;2022-11-23T07:38:08;112049.66;;;-142.21;100.00
10539;BME280;5317;49.048;8.468;2022-11-23T07:40:36;112049.66;;;-142.21;100.00
10539;BME280;5317;49.048;8.468;2022-11-23T07:43:05;112049.66;;;-142.21;100.00
10539;BME280;5317;49.048;8.468;2022-11-23T07:45:33;112049.66;;;-142.21;100.00
10539;BME280;5317;49.048;8.468;2022-11-23T07:48:05;112049.66;;;-142.21;100.00
10539;BME280;5317;49.048;8.468;2022-11-23T07:50:35;112049.66;;;-142.21;100.00
10539;BME280;5317;49.048;8.468;2022-11-23T07:53:06;112049.66;;;-142.21;100.00
10539;BME280;5317;49.048;8.468;2022-11-23T07:55:34;112049.66;;;-142.21;100.00
10539;BME280;5317;49.048;8.468;2022-11-23T07:58:02;112049.66;;;-142.21;100.00
10539;BME280;5317;49.048;8.468;2022-11-23T08:00:31;112049.66;;;-142.21;100.00
10539;BME280;5317;49.048;8.468;2022-11-23T08:02:58;112049.66;;;-142.21;100.00
10539;BME280;5317;49.048;8.468;2022-11-23T08:05:26;112049.66;;;-142.21;100.00
10539;BME280;5317;49.048;8.468;2022-11-23T08:07:58;112049.66;;;-142.21;100.00
10539;BME280;5317;49.048;8.468;2022-11-23T08:10:27;112049.66;;;-142.21;100.00
10539;BME280;5317;49.048;8.468;2022-11-23T08:12:56;112049.66;;;-142.21;100.00
10539;BME280;5317;49.048;8.468;2022-11-23T08:15:25;112049.66;;;-142.21;100.00
10539;BME280;5317;49.048;8.468;2022-11-23T08:17:54;112049.66;;;-142.21;100.00
10539;BME280;5317;49.048;8.468;2022-11-23T08:20:22;112049.66;;;-142.21;100.00
10539;BME280;5317;49.048;8.468;2022-11-23T08:22:50;112049.66;;;-142.21;99.83
10539;BME280;5317;49.048;8.468;2022-11-23T08:25:17;112049.66;;;-142.21;99.32
10539;BME280;5317;49.048;8.468;2022-11-23T08:27:46;112049.66;;;-142.21;98.77
10539;BME280;5317;49.048;8.468;2022-11-23T08:30:14;112049.66;;;-142.21;98.35
10539;BME280;5317;49.048;8.468;2022-11-23T08:32:41;112049.66;;;-142.21;95.14
10539;BME280;5317;49.048;8.468;2022-11-23T08:35:09;112049.66;;;-142.21;95.19
10539;BME280;5317;49.048;8.468;2022-11-23T08:37:36;112049.66;;;-142.21;92.84
10539;BME280;5317;49.048;8.468;2022-11-23T08:40:05;112049.66;;;-142.21;90.66
10539;BME280;5317;49.048;8.468;2022-11-23T08:42:32;112049.66;;;-142.21;90.31
10539;BME280;5317;49.048;8.468;2022-11-23T08:45:01;112049.66;;;-142.21;88.10
10539;BME280;5317;49.048;8.468;2022-11-23T08:47:31;112049.66;;;-142.21;86.04
10539;BME280;5317;49.048;8.468;2022-11-23T08:49:58;112049.66;;;-142.21;85.54
10539;BME280;5317;49.048;8.468;2022-11-23T08:52:27;112049.66;;;-142.21;86.01
10539;BME280;5317;49.048;8.468;2022-11-23T08:54:55;112049.66;;;-142.21;85.27
10539;BME280;5317;49.048;8.468;2022-11-23T08:57:22;112049.66;;;-142.21;81.99
10539;BME280;5317;49.048;8.468;2022-11-23T08:59:49;112049.66;;;-142.21;81.09
10539;BME280;5317;49.048;8.468;2022-11-23T09:02:18;112049.66;;;-142.21;77.80
10539;BME280;5317;49.048;8.468;2022-11-23T09:04:45;112049.66;;;-142.21;77.73
10539;BME280;5317;49.048;8.468;2022-11-23T09:07:13;112049.66;;;-142.21;75.59
10539;BME280;5317;49.048;8.468;2022-11-23T09:09:40;112049.66;;;-142.21;74.79
10539;BME280;5317;49.048;8.468;2022-11-23T09:12:07;112049.66;;;-142.21;72.92
10539;BME280;5317;49.048;8.468;2022-11-23T09:14:35;112049.66;;;-142.21;75.12
10539;BME280;5317;49.048;8.468;2022-11-23T09:17:02;112049.66;;;-142.21;75.25
10539;BME280;5317;49.048;8.468;2022-11-23T09:19:31;112049.66;;;-142.21;72.46
10539;BME280;5317;49.048;8.468;2022-11-23T09:21:58;112049.66;;;-142.21;70.78
10539;BME280;5317;49.048;8.468;2022-11-23T09:24:25;112049.66;;;-142.21;68.89
10539;BME280;5317;49.048;8.468;2022-11-23T09:26:53;112049.66;;;-142.21;70.09
10539;BME280;5317;49.048;8.468;2022-11-23T09:29:20;112049.66;;;-142.21;71.13
10539;BME280;5317;49.048;8.468;2022-11-23T09:31:48;112049.66;;;-142.21;70.34
10539;BME280;5317;49.048;8.468;2022-11-23T09:34:15;112049.66;;;-142.21;68.32
10539;BME280;5317;49.048;8.468;2022-11-23T09:36:44;112049.66;;;-142.21;66.34
10539;BME280;5317;49.048;8.468;2022-11-23T09:39:13;112049.66;;;-142.21;66.11
10539;BME280;5317;49.048;8.468;2022-11-23T09:42:43;112049.66;;;-142.21;64.76
10539;BME280;5317;49.048;8.468;2022-11-23T09:45:21;112049.66;;;-142.21;65.95
10539;BME280;5317;49.048;8.468;2022-11-23T09:48:14;112049.66;;;-142.21;65.39
10539;BME280;5317;49.048;8.468;2022-11-23T09:50:46;112049.66;;;-142.21;61.47
10539;BME280;5317;49.048;8.468;2022-11-23T09:53:21;112049.66;;;-142.21;61.66
10539;BME280;5317;49.048;8.468;2022-11-23T09:55:54;112049.66;;;-142.21;58.62
10539;BME280;5317;49.048;8.468;2022-11-23T09:58:29;112049.66;;;-142.21;56.94
10539;BME280;5317;49.048;8.468;2022-11-23T10:01:03;112049.66;;;-142.21;56.55
10539;BME280;5317;49.048;8.468;2022-11-23T10:03:35;112049.66;;;-142.21;57.75
10539;BME280;5317;49.048;8.468;2022-11-23T10:06:17;112049.66;;;-142.21;58.67
10539;BME280;5317;49.048;8.468;2022-11-23T10:08:58;112049.66;;;-142.21;56.43
10539;BME280;5317;49.048;8.468;2022-11-23T10:11:47;112049.66;;;-142.21;58.35
10539;BME280;5317;49.048;8.468;2022-11-23T10:14:38;112049.66;;;-142.21;51.62
10539;BME280;5317;49.048;8.468;2022-11-23T10:17:21;112049.66;;;-142.21;50.87
10539;BME280;5317;49.048;8.468;2022-11-23T10:20:11;112049.66;;;-142.21;53.81
10539;BME280;5317;49.048;8.468;2022-11-23T10:22:55;112049.66;;;-142.21;53.15
10539;BME280;5317;49.048;8.468;2022-11-23T10:25:30;112049.66;;;-142.21;53.92
10539;BME280;5317;49.048;8.468;2022-11-23T10:28:10;112049.66;;;-142.21;49.89
10539;BME280;5317;49.048;8.468;2022-11-23T10:30:38;112049.66;;;-142.21;47.05
10539;BME280;5317;49.048;8.468;2022-11-23T10:33:20;112049.66;;;-142.21;48.98
10539;BME280;5317;49.048;8.468;2022-11-23T10:35:49;112049.66;;;-142.21;46.62
10539;BME280;5317;49.048;8.468;2022-11-23T10:38:19;112049.66;;;-142.21;47.02
10539;BME280;5317;49.048;8.468;2022-11-23T10:41:00;112049.66;;;-142.21;45.59
10539;BME280;5317;49.048;8.468;2022-11-23T10:43:33;112049.66;;;-142.21;45.21
10539;BME280;5317;49.048;8.468;2022-11-23T10:46:28;112049.66;;;-142.21;45.83
10539;BME280;5317;49.048;8.468;2022-11-23T10:49:12;112049.66;;;-142.21;45.75
10539;BME280;5317;49.048;8.468;2022-11-23T10:52:00;112049.66;;;-142.21;42.51
10539;BME280;5317;49.048;8.468;2022-11-23T10:54:32;112049.66;;;-142.21;43.99
10539;BME280;5317;49.048;8.468;2022-11-23T10:57:21;112049.66;;;-142.21;42.18
10539;BME280;5317;49.048;8.468;2022-11-23T11:00:00;112049.66;;;-142.21;42.70
10539;BME280;5317;49.048;8.468;2022-11-23T11:02:28;112049.66;;;-142.21;42.30
10539;BME280;5317;49.048;8.468;2022-11-23T11:05:27;112049.66;;;-142.21;41.16
10539;BME280;5317;49.048;8.468;2022-11-23T11:07:57;112049.66;;;-142.21;42.20
10539;BME280;5317;49.048;8.468;2022-11-23T11:10:45;112049.66;;;-142.21;40.56
10539;BME280;5317;49.048;8.468;2022-11-23T11:13:26;112049.66;;;-142.21;38.22
10539;BME280;5317;49.048;8.468;2022-11-23T11:15:57;112049.66;;;-142.21;37.72
10539;BME280;5317;49.048;8.468;2022-11-23T11:18:29;112049.66;;;-142.21;36.49
10539;BME280;5317;49.048;8.468;2022-11-23T11:21:01;112049.66;;;-142.21;36.93
10539;BME280;5317;49.048;8.468;2022-11-23T11:23:30;112049.66;;;-142.21;37.56
10539;BME280;5317;49.048;8.468;2022-11-23T11:26:18;112049.66;;;-142.21;36.55
10539;BME280;5317;49.048;8.468;2022-11-23T11:28:50;112049.66;;;-142.21;36.99
10539;BME280;5317;49.048;8.468;2022-11-23T11:31:50;112049.66;;;-142.21;35.00
10539;BME280;5317;49.048;8.468;2022-11-23T11:34:25;112049.66;;;-142.21;35.29
10539;BME280;5317;49.048;8.468;2022-11-23T11:37:06;112049.66;;;-142.21;34.43
10539;BME280;5317;49.048;8.468;2022-11-23T11:39:43;112049.66;;;-142.21;34.01
10539;BME280;5317;49.048;8.468;2022-11-23T11:42:20;112049.66;;;-142.21;32.61
10539;BME280;5317;49.048;8.468;2022-11-23T11:44:55;112049.66;;;-142.21;31.50
10539;BME280;5317;49.048;8.468;2022-11-23T11:47:30;112049.66;;;-142.21;31.89
10539;BME280;5317;49.048;8.468;2022-11-23T11:50:22;112049.66;;;-142.21;31.89
10539;BME280;5317;49.048;8.468;2022-11-23T11:52:59;112049.66;;;-142.21;32.24
10539;BME280;5317;49.048;8.468;2022-11-23T11:55:40;112049.66;;;-142.21;31.44
10539;BME280;5317;49.048;8.468;2022-11-23T11:58:15;112049.66;;;-142.21;30.91
10539;BME280;5317;49.048;8.468;2022-11-23T12:00:47;112049.66;;;-142.21;30.38
10539;BME280;5317;49.048;8.468;2022-11-23T12:03:26;112049.66;;;-142.21;29.50
10539;BME280;5317;49.048;8.468;2022-11-23T12:06:07;112049.66;;;-142.21;29.28
10539;BME280;5317;49.048;8.468;2022-11-23T12:08:46;112049.66;;;-142.21;28.50
10539;BME280;5317;49.048;8.468;2022-11-23T12:11:17;112049.66;;;-142.21;28.82
10539;BME280;5317;49.048;8.468;2022-11-23T12:13:45;112049.66;;;-142.21;29.17
10539;BME280;5317;49.048;8.468;2022-11-23T12:16:27;112049.66;;;-142.21;29.21
10539;BME280;5317;49.048;8.468;2022-11-23T12:19:12;112049.66;;;-142.21;28.47
10539;BME280;5317;49.048;8.468;2022-11-23T12:22:13;112049.66;;;-142.21;28.79
10539;BME280;5317;49.048;8.468;2022-11-23T12:25:15;112049.66;;;-142.21;28.92
10539;BME280;5317;49.048;8.468;2022-11-23T12:27:59;112049.66;;;-142.21;27.99
10539;BME280;5317;49.048;8.468;2022-11-23T12:30:42;112049.66;;;-142.21;27.66
10539;BME280;5317;49.048;8.468;2022-11-23T12:33:52;112049.66;;;-142.21;27.20
10539;BME280;5317;49.048;8.468;2022-11-23T12:36:42;112049.66;;;-142.21;27.68
10539;BME280;5317;49.048;8.468;2022-11-23T12:39:41;112049.66;;;-142.21;26.92
10539;BME280;5317;49.048;8.468;2022-11-23T12:42:19;112049.66;;;-142.21;26.43
10539;BME280;5317;49.048;8.468;2022-11-23T12:45:02;112049.66;;;-142.21;26.47
10539;BME280;5317;49.048;8.468;2022-11-23T12:47:46;112049.66;;;-142.21;26.57
10539;BME280;5317;49.048;8.468;2022-11-23T12:50:29;112049.66;;;-142.21;25.93
10539;BME280;5317;49.048;8.468;2022-11-23T12:53:25;112049.66;;;-142.21;26.49
10539;BME280;5317;49.048;8.468;2022-11-23T12:56:07;112049.66;;;-142.21;25.89
10539;BME280;5317;49.048;8.468;2022-11-23T12:58:40;112049.66;;;-142.21;25.94